Time,TemperatureF,DewpointF,PressureIn,WindDirection,WindDirectionDegrees,WindSpeedMPH,WindSpeedGustMPH,Humidity,HourlyPrecipIn,Conditions,Clouds,dailyrainin,SoftwareType,DateUTC
2013-04-26 00:00:00,82.0,56.0,30.22,NNW,338,0.0,0.0,41,0.00,,,0.00,LWC V2.11 B50,2013-04-26 07:00:00,
2013-04-26 00:05:00,48.5,42.6,30.24,ENE,68,0.0,0.0,79,0.00,,,0.00,WeatherCatV1.15B25,2013-04-26 07:05:00,
2013-04-26 00:10:00,82.0,56.0,30.22,NNW,338,0.0,0.0,41,0.00,,,0.00,LWC V2.11 B50,2013-04-26 07:10:00,
2013-04-26 00:15:00,48.5,42.6,30.24,ENE,68,0.0,0.0,79,0.00,,,0.00,WeatherCatV1.15B25,2013-04-26 07:15:00,
2013-04-26 00:20:00,82.0,56.0,30.22,NNW,338,0.0,0.0,41,0.00,,,0.00,LWC V2.11 B50,2013-04-26 07:20:00,
2013-04-26 00:25:00,48.5,42.6,30.24,ENE,68,0.0,0.0,79,0.00,,,0.00,WeatherCatV1.15B25,2013-04-26 07:25:00,
2013-04-26 00:30:00,82.0,56.0,30.22,NNW,338,0.0,0.0,41,0.00,,,0.00,LWC V2.11 B50,2013-04-26 07:30:00,
2013-04-26 00:35:00,48.5,42.6,30.24,ENE,68,0.0,0.0,79,0.00,,,0.00,WeatherCatV1.15B25,2013-04-26 07:35:00,
2013-04-26 00:40:00,82.0,56.0,30.22,NNW,338,0.0,0.0,41,0.00,,,0.00,LWC V2.11 B50,2013-04-26 07:40:00,
2013-04-26 00:45:00,48.5,42.6,30.24,ENE,68,0.0,0.0,79,0.00,,,0.00,WeatherCatV1.15B25,2013-04-26 07:45:00,
2013-04-26 00:50:00,82.0,56.0,30.22,NNW,338,0.0,0.0,41,0.00,,,0.00,LWC V2.11 B50,2013-04-26 07:50:00,
2013-04-26 00:55:00,48.5,42.6,30.24,ENE,68,0.0,0.0,79,0.00,,,0.00,WeatherCatV1.15B25,2013-04-26 07:55:00,
2013-04-26 01:00:00,82.0,56.0,30.22,NNW,338,0.0,0.0,41,0.00,,,0.00,LWC V2.11 B50,2013-04-26 08:00:00,
2013-04-26 01:05:00,48.5,42.6,30.24,ENE,68,0.0,0.0,79,0.00,,,0.00,WeatherCatV1.15B25,2013-04-26 08:05:00,
2013-04-26 01:10:00,82.0,56.0,30.22,NNW,338,0.0,0.0,41,0.00,,,0.00,LWC V2.11 B50,2013-04-26 08:10:00,
2013-04-26 01:15:00,48.5,42.6,30.24,ENE,68,0.0,0.0,79,0.00,,,0.00,WeatherCatV1.15B25,2013-04-26 08:15:00,
2013-04-26 01:20:00,82.0,56.0,30.22,NNW,338,0.0,0.0,41,0.00,,,0.00,LWC V2.11 B50,2013-04-26 08:20:00,
2013-04-26 01:25:00,48.5,42.6,30.24,ENE,68,0.0,0.0,79,0.00,,,0.00,WeatherCatV1.15B25,2013-04-26 08:25:00,
2013-04-26 01:30:00,82.0,56.0,30.22,NNW,338,0.0,0.0,41,0.00,,,0.00,LWC V2.11 B50,2013-04-26 08:30:00,
2013-04-26 01:35:00,48.5,42.6,30.24,ENE,68,0.0,0.0,79,0.00,,,0.00,WeatherCatV1.15B25,2013-04-26 08:35:00,
2013-04-26 01:40:00,82.0,56.0,30.22,NNW,338,0.0,0.0,41,0.00,,,0.00,LWC V2.11 B50,2013-04-26 08:40:00,
2013-04-26 01:45:00,48.5,42.6,30.24,ENE,68,0.0,0.0,79,0.00,,,0.00,WeatherCatV1.15B25,2013-04-26 08:45:00,
2013-04-26 01:50:00,82.0,56.0,30.22,NNW,338,0.0,0.0,41,0.00,,,0.00,LWC V2.11 B50,2013-04-26 08:50:00,
2013-04-26 01:55:00,48.5,42.6,30.24,ENE,68,0.0,0.0,79,0.00,,,0.00,WeatherCatV1.15B25,2013-04-26 08:55:00,
2013-04-26 02:00:00,82.0,56.0,30.22,NNW,338,0.0,0.0,41,0.00,,,0.00,LWC V2.11 B50,2013-04-26 09:00:00,
2013-04-26 02:05:00,48.5,42.6,30.24,ENE,68,0.0,0.0,79,0.00,,,0.00,WeatherCatV1.15B25,2013-04-26 09:05:00,
2013-04-26 02:10:00,82.0,56.0,30.22,NNW,338,0.0,0.0,41,0.00,,,0.00,LWC V2.11 B50,2013-04-26 09:10:00,
2013-04-26 02:15:00,48.6,42.7,30.33,ENE,68,0.0,0.0,80,0.00,,,0.00,WeatherCatV1.15B25,2013-04-26 09:15:00,
2013-04-26 02:20:00,82.0,56.0,30.22,NNW,338,0.0,0.0,41,0.00,,,0.00,LWC V2.11 B50,2013-04-26 09:20:00,
2013-04-26 02:25:00,48.4,42.5,30.33,ESE,112,0.0,0.0,80,0.00,,,0.00,WeatherCatV1.15B25,2013-04-26 09:25:00,
2013-04-26 02:30:00,82.0,56.0,30.22,NNW,338,0.0,0.0,41,0.00,,,0.00,LWC V2.11 B50,2013-04-26 09:30:00,
2013-04-26 02:35:00,48.0,42.2,30.33,East,90,0.0,0.0,80,0.00,,,0.00,WeatherCatV1.15B25,2013-04-26 09:35:00,
2013-04-26 02:40:00,82.0,56.0,30.22,NNW,338,0.0,0.0,41,0.00,,,0.00,LWC V2.11 B50,2013-04-26 09:40:00,
2013-04-26 02:45:00,47.8,42.3,30.33,ENE,68,0.0,0.0,81,0.00,,,0.00,WeatherCatV1.15B25,2013-04-26 09:45:00,
2013-04-26 02:50:00,82.0,56.0,30.22,NNW,338,0.0,0.0,41,0.00,,,0.00,LWC V2.11 B50,2013-04-26 09:50:00,
2013-04-26 02:55:00,47.8,42.3,30.34,ENE,68,0.0,0.0,81,0.00,,,0.00,WeatherCatV1.15B25,2013-04-26 09:55:00,
2013-04-26 03:00:00,47.8,42.3,30.34,ENE,68,0.0,0.0,81,0.00,,,0.00,WeatherCatV1.15B25,2013-04-26 10:00:00,
2013-04-26 03:02:00,-999.0,41.9,30.35,NE,45,0.0,0.0,81,0.00,,,0.00,LWC V2.11 B50,2013-04-26 10:02:00,
2013-04-26 03:05:00,47.7,42.1,30.35,ENE,68,0.0,0.0,81,0.00,,,0.00,WeatherCatV1.15B25,2013-04-26 10:05:00,
2013-04-26 03:07:00,-999.0,42.2,30.36,ENE,67,0.0,0.0,82,0.00,,,0.00,LWC V2.11 B50,2013-04-26 10:07:00,
2013-04-26 03:10:00,47.5,42.3,30.35,ENE,68,0.0,0.0,82,0.00,,,0.00,WeatherCatV1.15B25,2013-04-26 10:10:00,
2013-04-26 03:12:00,-999.0,42.1,30.36,NNE,22,0.0,0.0,82,0.00,,,0.00,LWC V2.11 B50,2013-04-26 10:12:00,
2013-04-26 03:15:00,47.5,42.3,30.35,ENE,68,0.0,0.0,82,0.00,,,0.00,WeatherCatV1.15B25,2013-04-26 10:15:00,
2013-04-26 03:17:00,-999.0,41.9,30.35,NE,45,0.0,0.0,82,0.00,,,0.00,LWC V2.11 B50,2013-04-26 10:17:00,
2013-04-26 03:20:00,47.1,41.9,30.34,NNE,22,0.0,0.0,82,0.00,,,0.00,WeatherCatV1.15B25,2013-04-26 10:20:00,
2013-04-26 03:22:00,-999.0,41.9,30.35,ESE,112,0.0,0.0,82,0.00,,,0.00,LWC V2.11 B50,2013-04-26 10:22:00,
2013-04-26 03:25:00,47.1,41.9,30.34,NNE,22,0.0,0.0,82,0.00,,,0.00,WeatherCatV1.15B25,2013-04-26 10:25:00,
2013-04-26 03:28:00,-999.0,41.9,30.35,ESE,112,0.0,0.0,82,0.00,,,0.00,LWC V2.11 B50,2013-04-26 10:28:00,
2013-04-26 03:30:00,47.1,41.9,30.35,East,90,0.0,0.0,82,0.00,,,0.00,WeatherCatV1.15B25,2013-04-26 10:30:00,
2013-04-26 03:33:00,-999.0,41.9,30.35,East,90,0.0,0.0,82,0.00,,,0.00,LWC V2.11 B50,2013-04-26 10:33:00,
2013-04-26 03:35:00,47.1,41.9,30.35,East,90,0.0,0.0,82,0.00,,,0.00,WeatherCatV1.15B25,2013-04-26 10:35:00,
2013-04-26 03:38:00,-999.0,41.7,30.36,East,90,0.0,0.0,82,0.00,,,0.00,LWC V2.11 B50,2013-04-26 10:38:00,
2013-04-26 03:40:00,46.9,41.7,30.35,ENE,68,0.0,0.0,82,0.00,,,0.00,WeatherCatV1.15B25,2013-04-26 10:40:00,
2013-04-26 03:43:00,-999.0,41.9,30.36,ENE,67,0.0,0.0,83,0.00,,,0.00,LWC V2.11 B50,2013-04-26 10:43:00,
2013-04-26 03:45:00,46.9,41.7,30.35,ENE,68,0.0,0.0,82,0.00,,,0.00,WeatherCatV1.15B25,2013-04-26 10:45:00,
2013-04-26 03:48:00,-999.0,41.7,30.36,East,90,0.0,0.0,83,0.00,,,0.00,LWC V2.11 B50,2013-04-26 10:48:00,
2013-04-26 03:50:00,46.8,41.9,30.35,East,90,0.0,0.0,83,0.00,,,0.00,WeatherCatV1.15B25,2013-04-26 10:50:00,
2013-04-26 03:53:00,-999.0,41.7,30.36,ESE,112,0.0,0.0,83,0.00,,,0.00,LWC V2.11 B50,2013-04-26 10:53:00,
2013-04-26 03:55:00,46.8,41.9,30.35,East,90,0.0,0.0,83,0.00,,,0.00,WeatherCatV1.15B25,2013-04-26 10:55:00,
2013-04-26 03:58:00,-999.0,41.7,30.36,ESE,112,0.0,0.0,83,0.00,,,0.00,LWC V2.11 B50,2013-04-26 10:58:00,
2013-04-26 04:00:00,46.6,41.7,30.35,ESE,112,0.0,0.0,83,0.00,,,0.00,WeatherCatV1.15B25,2013-04-26 11:00:00,
2013-04-26 04:03:00,-999.0,41.4,30.37,ESE,112,0.0,0.0,83,0.00,,,0.00,LWC V2.11 B50,2013-04-26 11:03:00,
2013-04-26 04:05:00,46.6,41.7,30.35,ESE,112,0.0,0.0,83,0.00,,,0.00,WeatherCatV1.15B25,2013-04-26 11:05:00,
2013-04-26 04:08:00,-999.0,41.4,30.37,ESE,112,0.0,0.0,83,0.00,,,0.00,LWC V2.11 B50,2013-04-26 11:08:00,
2013-04-26 04:10:00,46.2,41.3,30.37,ESE,112,0.0,0.0,83,0.00,,,0.00,WeatherCatV1.15B25,2013-04-26 11:10:00,
2013-04-26 04:13:00,-999.0,41.4,30.36,East,90,0.0,0.0,83,0.00,,,0.00,LWC V2.11 B50,2013-04-26 11:13:00,
2013-04-26 04:15:00,46.2,41.3,30.37,ESE,112,0.0,0.0,83,0.00,,,0.00,WeatherCatV1.15B25,2013-04-26 11:15:00,
2013-04-26 04:18:00,-999.0,41.2,30.36,East,90,0.0,0.0,83,0.00,,,0.00,LWC V2.11 B50,2013-04-26 11:18:00,
2013-04-26 04:20:00,46.2,41.3,30.36,ESE,112,0.0,0.0,83,0.00,,,0.00,WeatherCatV1.15B25,2013-04-26 11:20:00,
2013-04-26 04:23:00,-999.0,41.5,30.37,East,90,0.0,0.0,84,0.00,,,0.00,LWC V2.11 B50,2013-04-26 11:23:00,
2013-04-26 04:25:00,46.2,41.3,30.36,ESE,112,0.0,0.0,83,0.00,,,0.00,WeatherCatV1.15B25,2013-04-26 11:25:00,
2013-04-26 04:28:00,-999.0,41.5,30.36,East,90,0.0,0.0,84,0.00,,,0.00,LWC V2.11 B50,2013-04-26 11:28:00,
2013-04-26 04:30:00,46.0,41.5,30.36,ESE,112,0.0,0.0,84,0.00,,,0.00,WeatherCatV1.15B25,2013-04-26 11:30:00,
2013-04-26 04:33:00,-999.0,41.1,30.37,SE,135,0.0,0.0,84,0.00,,,0.00,LWC V2.11 B50,2013-04-26 11:33:00,
2013-04-26 04:35:00,46.0,41.5,30.36,ESE,112,0.0,0.0,84,0.00,,,0.00,WeatherCatV1.15B25,2013-04-26 11:35:00,
2013-04-26 04:39:00,-999.0,41.1,30.37,East,90,0.0,0.0,84,0.00,,,0.00,LWC V2.11 B50,2013-04-26 11:39:00,
2013-04-26 04:40:00,45.7,41.1,30.36,East,90,0.0,0.0,84,0.00,,,0.00,WeatherCatV1.15B25,2013-04-26 11:40:00,
2013-04-26 04:44:00,-999.0,41.1,30.37,East,90,0.0,0.0,84,0.00,,,0.00,LWC V2.11 B50,2013-04-26 11:44:00,
2013-04-26 04:45:00,45.7,41.1,30.36,East,90,0.0,0.0,84,0.00,,,0.00,WeatherCatV1.15B25,2013-04-26 11:45:00,
2013-04-26 04:49:00,-999.0,41.1,30.37,ESE,112,0.0,0.0,84,0.00,,,0.00,LWC V2.11 B50,2013-04-26 11:49:00,
2013-04-26 04:50:00,45.7,41.1,30.37,East,90,0.0,0.0,84,0.00,,,0.00,WeatherCatV1.15B25,2013-04-26 11:50:00,
2013-04-26 04:54:00,-999.0,41.5,30.37,ENE,67,0.0,0.0,85,0.00,,,0.00,LWC V2.11 B50,2013-04-26 11:54:00,
2013-04-26 04:55:00,45.7,41.1,30.37,East,90,0.0,0.0,84,0.00,,,0.00,WeatherCatV1.15B25,2013-04-26 11:55:00,
2013-04-26 04:59:00,-999.0,41.3,30.37,ESE,112,0.0,0.0,85,0.00,,,0.00,LWC V2.11 B50,2013-04-26 11:59:00,
2013-04-26 05:00:00,45.5,41.3,30.37,ENE,68,0.0,0.0,85,0.00,,,0.00,WeatherCatV1.15B25,2013-04-26 12:00:00,
2013-04-26 05:04:00,-999.0,41.3,30.37,East,90,0.0,0.0,85,0.00,,,0.00,LWC V2.11 B50,2013-04-26 12:04:00,
2013-04-26 05:05:00,45.5,41.3,30.37,ENE,68,0.0,0.0,85,0.00,,,0.00,WeatherCatV1.15B25,2013-04-26 12:05:00,
2013-04-26 05:09:00,-999.0,41.1,30.37,East,90,0.0,0.0,85,0.00,,,0.00,LWC V2.11 B50,2013-04-26 12:09:00,
2013-04-26 05:10:00,45.5,41.3,30.37,East,90,0.0,0.0,85,0.00,,,0.00,WeatherCatV1.15B25,2013-04-26 12:10:00,
2013-04-26 05:14:00,-999.0,41.1,30.38,ESE,112,0.0,0.0,85,0.00,,,0.00,LWC V2.11 B50,2013-04-26 12:14:00,
2013-04-26 05:15:00,45.5,41.3,30.37,East,90,0.0,0.0,85,0.00,,,0.00,WeatherCatV1.15B25,2013-04-26 12:15:00,
2013-04-26 05:19:00,-999.0,41.1,30.37,ESE,112,0.0,0.0,85,0.00,,,0.00,LWC V2.11 B50,2013-04-26 12:19:00,
2013-04-26 05:20:00,45.3,41.1,30.37,ESE,112,0.0,0.0,85,0.00,,,0.00,WeatherCatV1.15B25,2013-04-26 12:20:00,
2013-04-26 05:24:00,-999.0,41.1,30.37,ENE,67,0.0,0.0,85,0.00,,,0.00,LWC V2.11 B50,2013-04-26 12:24:00,
2013-04-26 05:25:00,45.3,41.1,30.37,ESE,112,0.0,0.0,85,0.00,,,0.00,WeatherCatV1.15B25,2013-04-26 12:25:00,
2013-04-26 05:29:00,-999.0,41.1,30.38,ENE,67,0.0,0.0,85,0.00,,,0.00,LWC V2.11 B50,2013-04-26 12:29:00,
2013-04-26 05:30:00,45.3,41.1,30.37,ENE,68,0.0,0.0,85,0.00,,,0.00,WeatherCatV1.15B25,2013-04-26 12:30:00,
2013-04-26 05:34:00,-999.0,41.4,30.38,ENE,67,0.0,0.0,86,0.00,,,0.00,LWC V2.11 B50,2013-04-26 12:34:00,
2013-04-26 05:35:00,45.3,41.1,30.37,ENE,68,0.0,0.0,85,0.00,,,0.00,WeatherCatV1.15B25,2013-04-26 12:35:00,
2013-04-26 05:39:00,-999.0,41.4,30.38,ENE,67,0.0,0.0,86,0.00,,,0.00,LWC V2.11 B50,2013-04-26 12:39:00,
2013-04-26 05:40:00,45.3,41.4,30.38,ENE,68,0.0,0.0,86,0.00,,,0.00,WeatherCatV1.15B25,2013-04-26 12:40:00,
2013-04-26 05:45:00,-999.0,41.4,30.38,ESE,112,0.0,0.0,86,0.00,,,0.00,LWC V2.11 B50,2013-04-26 12:45:00,
2013-04-26 05:50:00,-999.0,41.6,30.38,East,90,0.0,0.0,86,0.00,,,0.00,LWC V2.11 B50,2013-04-26 12:50:00,
2013-04-26 05:55:00,-999.0,41.6,30.38,East,90,0.0,0.0,86,0.00,,,0.00,LWC V2.11 B50,2013-04-26 12:55:00,
2013-04-26 06:00:00,82.0,56.0,30.22,NNW,338,0.0,0.0,41,0.00,,,0.00,LWC V2.11 B50,2013-04-26 13:00:00,
2013-04-26 06:05:00,45.7,41.7,30.38,East,90,0.0,0.0,86,0.00,,,0.00,WeatherCatV1.15B25,2013-04-26 13:05:00,
2013-04-26 06:10:00,82.0,56.0,30.22,NNW,338,0.0,0.0,41,0.00,,,0.00,LWC V2.11 B50,2013-04-26 13:10:00,
2013-04-26 06:15:00,46.0,42.1,30.37,East,90,0.0,0.0,86,0.00,,,0.00,WeatherCatV1.15B25,2013-04-26 13:15:00,
2013-04-26 06:20:00,82.0,56.0,30.22,NNW,338,0.0,0.0,41,0.00,,,0.00,LWC V2.11 B50,2013-04-26 13:20:00,
2013-04-26 06:25:00,46.2,42.3,30.38,East,90,0.0,0.0,86,0.00,,,0.00,WeatherCatV1.15B25,2013-04-26 13:25:00,
2013-04-26 06:30:00,82.0,56.0,30.22,NNW,338,0.0,0.0,41,0.00,,,0.00,LWC V2.11 B50,2013-04-26 13:30:00,
2013-04-26 06:35:00,46.6,42.6,30.38,SE,135,0.0,0.0,86,0.00,,,0.00,WeatherCatV1.15B25,2013-04-26 13:35:00,
2013-04-26 06:40:00,82.0,56.0,30.22,NNW,338,0.0,0.0,41,0.00,,,0.00,LWC V2.11 B50,2013-04-26 13:40:00,
2013-04-26 06:45:00,46.8,42.8,30.38,South,180,0.0,0.0,86,0.00,,,0.00,WeatherCatV1.15B25,2013-04-26 13:45:00,
2013-04-26 06:50:00,82.0,56.0,30.22,NNW,338,0.0,0.0,41,0.00,,,0.00,LWC V2.11 B50,2013-04-26 13:50:00,
2013-04-26 06:55:00,46.9,43.3,30.37,SSW,202,0.0,0.0,87,0.00,,,0.00,WeatherCatV1.15B25,2013-04-26 13:55:00,
2013-04-26 07:00:00,82.0,56.0,30.22,NNW,338,0.0,0.0,41,0.00,,,0.00,LWC V2.11 B50,2013-04-26 14:00:00,
2013-04-26 07:05:00,47.3,43.6,30.38,South,180,0.0,0.0,87,0.00,,,0.00,WeatherCatV1.15B25,2013-04-26 14:05:00,
2013-04-26 07:10:00,82.0,56.0,30.22,NNW,338,0.0,0.0,41,0.00,,,0.00,LWC V2.11 B50,2013-04-26 14:10:00,
2013-04-26 07:15:00,47.7,44.0,30.38,WSW,248,0.0,0.0,87,0.00,,,0.00,WeatherCatV1.15B25,2013-04-26 14:15:00,
2013-04-26 07:20:00,82.0,56.0,30.22,NNW,338,0.0,0.0,41,0.00,,,0.00,LWC V2.11 B50,2013-04-26 14:20:00,
2013-04-26 07:25:00,47.8,44.2,30.39,WSW,248,0.0,0.0,87,0.00,,,0.00,WeatherCatV1.15B25,2013-04-26 14:25:00,
2013-04-26 07:30:00,82.0,56.0,30.22,NNW,338,0.0,0.0,41,0.00,,,0.00,LWC V2.11 B50,2013-04-26 14:30:00,
2013-04-26 07:35:00,48.0,44.3,30.39,South,180,0.0,0.0,87,0.00,,,0.00,WeatherCatV1.15B25,2013-04-26 14:35:00,
2013-04-26 07:40:00,82.0,56.0,30.22,NNW,338,0.0,0.0,41,0.00,,,0.00,LWC V2.11 B50,2013-04-26 14:40:00,
2013-04-26 07:45:00,48.4,44.7,30.39,SSW,202,0.0,0.0,87,0.00,,,0.00,WeatherCatV1.15B25,2013-04-26 14:45:00,
2013-04-26 07:50:00,82.0,56.0,30.22,NNW,338,0.0,0.0,41,0.00,,,0.00,LWC V2.11 B50,2013-04-26 14:50:00,
2013-04-26 07:55:00,48.6,44.9,30.39,SSW,202,0.0,0.0,87,0.00,,,0.00,WeatherCatV1.15B25,2013-04-26 14:55:00,
2013-04-26 08:00:00,82.0,56.0,30.22,NNW,338,0.0,0.0,41,0.00,,,0.00,LWC V2.11 B50,2013-04-26 15:00:00,
2013-04-26 08:05:00,48.7,45.0,30.39,WSW,248,0.0,0.0,87,0.00,,,0.00,WeatherCatV1.15B25,2013-04-26 15:05:00,
2013-04-26 08:10:00,82.0,56.0,30.22,NNW,338,0.0,0.0,41,0.00,,,0.00,LWC V2.11 B50,2013-04-26 15:10:00,
2013-04-26 08:15:00,48.9,45.2,30.40,WSW,248,0.0,0.0,87,0.00,,,0.00,WeatherCatV1.15B25,2013-04-26 15:15:00,
2013-04-26 08:20:00,82.0,56.0,30.22,NNW,338,0.0,0.0,41,0.00,,,0.00,LWC V2.11 B50,2013-04-26 15:20:00,
2013-04-26 08:25:00,49.3,45.6,30.40,West,270,0.0,0.0,87,0.00,,,0.00,WeatherCatV1.15B25,2013-04-26 15:25:00,
2013-04-26 08:30:00,82.0,56.0,30.22,NNW,338,0.0,0.0,41,0.00,,,0.00,LWC V2.11 B50,2013-04-26 15:30:00,
2013-04-26 08:35:00,49.3,45.6,30.40,West,270,0.0,0.0,87,0.00,,,0.00,WeatherCatV1.15B25,2013-04-26 15:35:00,
2013-04-26 08:40:00,82.0,56.0,30.22,NNW,338,0.0,0.0,41,0.00,,,0.00,LWC V2.11 B50,2013-04-26 15:40:00,
2013-04-26 08:45:00,49.3,45.6,30.40,West,270,0.0,0.0,87,0.00,,,0.00,WeatherCatV1.15B25,2013-04-26 15:45:00,
2013-04-26 08:50:00,82.0,56.0,30.22,NNW,338,0.0,0.0,41,0.00,,,0.00,LWC V2.11 B50,2013-04-26 15:50:00,
2013-04-26 08:55:00,49.6,45.9,30.40,West,270,0.0,0.0,87,0.00,,,0.00,WeatherCatV1.15B25,2013-04-26 15:55:00,
2013-04-26 09:00:00,82.0,56.0,30.22,NNW,338,0.0,0.0,41,0.00,,,0.00,LWC V2.11 B50,2013-04-26 16:00:00,
2013-04-26 09:05:00,49.6,45.9,30.40,SW,225,0.0,0.0,87,0.00,,,0.00,WeatherCatV1.15B25,2013-04-26 16:05:00,
2013-04-26 09:10:00,82.0,56.0,30.22,NNW,338,0.0,0.0,41,0.00,,,0.00,LWC V2.11 B50,2013-04-26 16:10:00,
2013-04-26 09:15:00,49.8,45.8,30.40,WSW,248,0.0,0.0,86,0.00,,,0.00,WeatherCatV1.15B25,2013-04-26 16:15:00,
2013-04-26 09:20:00,82.0,56.0,30.22,NNW,338,0.0,0.0,41,0.00,,,0.00,LWC V2.11 B50,2013-04-26 16:20:00,
2013-04-26 09:25:00,50.2,46.1,30.40,South,180,0.0,0.0,86,0.00,,,0.00,WeatherCatV1.15B25,2013-04-26 16:25:00,
2013-04-26 09:30:00,82.0,56.0,30.22,NNW,338,0.0,0.0,41,0.00,,,0.00,LWC V2.11 B50,2013-04-26 16:30:00,
2013-04-26 09:35:00,50.4,46.3,30.40,SW,225,0.0,0.0,86,0.00,,,0.00,WeatherCatV1.15B25,2013-04-26 16:35:00,
2013-04-26 09:40:00,82.0,56.0,30.22,NNW,338,0.0,0.0,41,0.00,,,0.00,LWC V2.11 B50,2013-04-26 16:40:00,
2013-04-26 09:45:00,50.5,46.8,30.40,West,270,0.0,0.0,87,0.00,,,0.00,WeatherCatV1.15B25,2013-04-26 16:45:00,
2013-04-26 09:50:00,82.0,56.0,30.22,NNW,338,0.0,0.0,41,0.00,,,0.00,LWC V2.11 B50,2013-04-26 16:50:00,
2013-04-26 09:55:00,50.7,47.0,30.39,WSW,248,0.4,0.4,87,0.00,,,0.00,WeatherCatV1.15B25,2013-04-26 16:55:00,
2013-04-26 10:00:00,82.0,56.0,30.22,NNW,338,0.0,0.0,41,0.00,,,0.00,LWC V2.11 B50,2013-04-26 17:00:00,
2013-04-26 10:05:00,50.9,47.2,30.40,West,270,0.0,0.0,87,0.00,,,0.00,WeatherCatV1.15B25,2013-04-26 17:05:00,
2013-04-26 10:10:00,82.0,56.0,30.22,NNW,338,0.0,0.0,41,0.00,,,0.00,LWC V2.11 B50,2013-04-26 17:10:00,
2013-04-26 10:15:00,51.4,47.4,30.40,WSW,248,0.0,0.0,86,0.00,,,0.00,WeatherCatV1.15B25,2013-04-26 17:15:00,
2013-04-26 10:20:00,82.0,56.0,30.22,NNW,338,0.0,0.0,41,0.00,,,0.00,LWC V2.11 B50,2013-04-26 17:20:00,
2013-04-26 10:25:00,51.6,47.6,30.39,WSW,248,0.0,0.0,86,0.00,,,0.00,WeatherCatV1.15B25,2013-04-26 17:25:00,
2013-04-26 10:30:00,82.0,56.0,30.22,NNW,338,0.0,0.0,41,0.00,,,0.00,LWC V2.11 B50,2013-04-26 17:30:00,
2013-04-26 10:35:00,52.0,47.9,30.40,WSW,248,0.0,0.0,86,0.00,,,0.00,WeatherCatV1.15B25,2013-04-26 17:35:00,
2013-04-26 10:40:00,82.0,56.0,30.22,NNW,338,0.0,0.0,41,0.00,,,0.00,LWC V2.11 B50,2013-04-26 17:40:00,
2013-04-26 10:45:00,52.3,48.3,30.40,West,270,0.0,0.0,86,0.00,,,0.00,WeatherCatV1.15B25,2013-04-26 17:45:00,
2013-04-26 10:50:00,82.0,56.0,30.22,NNW,338,0.0,0.0,41,0.00,,,0.00,LWC V2.11 B50,2013-04-26 17:50:00,
2013-04-26 10:55:00,52.5,48.5,30.41,South,180,0.0,0.0,86,0.00,,,0.00,WeatherCatV1.15B25,2013-04-26 17:55:00,
2013-04-26 11:00:00,82.0,56.0,30.22,NNW,338,0.0,0.0,41,0.00,,,0.00,LWC V2.11 B50,2013-04-26 18:00:00,
2013-04-26 11:05:00,52.9,48.5,30.41,SW,225,0.0,0.0,85,0.00,,,0.00,WeatherCatV1.15B25,2013-04-26 18:05:00,
2013-04-26 11:10:00,82.0,56.0,30.22,NNW,338,0.0,0.0,41,0.00,,,0.00,LWC V2.11 B50,2013-04-26 18:10:00,
2013-04-26 11:15:00,53.2,48.8,30.41,West,270,0.0,0.0,85,0.00,,,0.00,WeatherCatV1.15B25,2013-04-26 18:15:00,
2013-04-26 11:20:00,82.0,56.0,30.22,NNW,338,0.0,0.0,41,0.00,,,0.00,LWC V2.11 B50,2013-04-26 18:20:00,
2013-04-26 11:25:00,53.2,48.8,30.42,West,270,0.0,0.0,85,0.00,,,0.00,WeatherCatV1.15B25,2013-04-26 18:25:00,
2013-04-26 11:30:00,82.0,56.0,30.22,NNW,338,0.0,0.0,41,0.00,,,0.00,LWC V2.11 B50,2013-04-26 18:30:00,
2013-04-26 11:35:00,53.8,49.4,30.41,West,270,0.0,0.0,85,0.00,,,0.00,WeatherCatV1.15B25,2013-04-26 18:35:00,
2013-04-26 11:40:00,82.0,56.0,30.22,NNW,338,0.0,0.0,41,0.00,,,0.00,LWC V2.11 B50,2013-04-26 18:40:00,
2013-04-26 11:45:00,54.3,49.9,30.41,WSW,248,0.0,0.0,85,0.00,,,0.00,WeatherCatV1.15B25,2013-04-26 18:45:00,
2013-04-26 11:50:00,82.0,56.0,30.22,NNW,338,0.0,0.0,41,0.00,,,0.00,LWC V2.11 B50,2013-04-26 18:50:00,
2013-04-26 11:55:00,54.7,49.9,30.42,South,180,0.0,0.0,84,0.00,,,0.00,WeatherCatV1.15B25,2013-04-26 18:55:00,
2013-04-26 12:00:00,82.0,56.0,30.22,NNW,338,0.0,0.0,41,0.00,,,0.00,LWC V2.11 B50,2013-04-26 19:00:00,
2013-04-26 12:05:00,55.0,50.3,30.41,WSW,248,0.0,0.0,84,0.00,,,0.00,WeatherCatV1.15B25,2013-04-26 19:05:00,
2013-04-26 12:10:00,82.0,56.0,30.22,NNW,338,0.0,0.0,41,0.00,,,0.00,LWC V2.11 B50,2013-04-26 19:10:00,
2013-04-26 12:15:00,55.8,51.0,30.41,WSW,248,0.0,0.0,84,0.00,,,0.00,WeatherCatV1.15B25,2013-04-26 19:15:00,
2013-04-26 12:20:00,82.0,56.0,30.22,NNW,338,0.0,0.0,41,0.00,,,0.00,LWC V2.11 B50,2013-04-26 19:20:00,
2013-04-26 12:25:00,57.0,52.2,30.40,West,270,0.0,0.0,84,0.00,,,0.00,WeatherCatV1.15B25,2013-04-26 19:25:00,
2013-04-26 12:30:00,82.0,56.0,30.22,NNW,338,0.0,0.0,41,0.00,,,0.00,LWC V2.11 B50,2013-04-26 19:30:00,
2013-04-26 12:35:00,59.5,54.7,30.41,West,270,0.0,0.0,84,0.00,,,0.00,WeatherCatV1.15B25,2013-04-26 19:35:00,
2013-04-26 12:40:00,82.0,56.0,30.22,NNW,338,0.0,0.0,41,0.00,,,0.00,LWC V2.11 B50,2013-04-26 19:40:00,
2013-04-26 12:45:00,62.1,56.5,30.41,West,270,0.0,0.0,82,0.00,,,0.00,WeatherCatV1.15B25,2013-04-26 19:45:00,
2013-04-26 12:50:00,82.0,56.0,30.22,NNW,338,0.0,0.0,41,0.00,,,0.00,LWC V2.11 B50,2013-04-26 19:50:00,
2013-04-26 12:55:00,64.2,57.6,30.41,NW,315,0.0,0.0,79,0.00,,,0.00,WeatherCatV1.15B25,2013-04-26 19:55:00,
2013-04-26 13:00:00,82.0,56.0,30.22,NNW,338,0.0,0.0,41,0.00,,,0.00,LWC V2.11 B50,2013-04-26 20:00:00,
2013-04-26 13:05:00,66.4,58.2,30.41,WNW,292,0.0,0.0,75,0.00,,,0.00,WeatherCatV1.15B25,2013-04-26 20:05:00,
2013-04-26 13:10:00,82.0,56.0,30.22,NNW,338,0.0,0.0,41,0.00,,,0.00,LWC V2.11 B50,2013-04-26 20:10:00,
2013-04-26 13:15:00,68.0,58.2,30.41,WNW,292,0.0,0.0,71,0.00,,,0.00,WeatherCatV1.15B25,2013-04-26 20:15:00,
2013-04-26 13:20:00,82.0,56.0,30.22,NNW,338,0.0,0.0,41,0.00,,,0.00,LWC V2.11 B50,2013-04-26 20:20:00,
2013-04-26 13:25:00,68.9,58.3,30.40,WNW,292,0.0,0.0,69,0.00,,,0.00,WeatherCatV1.15B25,2013-04-26 20:25:00,
2013-04-26 13:30:00,82.0,56.0,30.22,NNW,338,0.0,0.0,41,0.00,,,0.00,LWC V2.11 B50,2013-04-26 20:30:00,
2013-04-26 13:35:00,69.6,58.2,30.40,WNW,292,0.0,0.0,67,0.00,,,0.00,WeatherCatV1.15B25,2013-04-26 20:35:00,
2013-04-26 13:40:00,82.0,56.0,30.22,NNW,338,0.0,0.0,41,0.00,,,0.00,LWC V2.11 B50,2013-04-26 20:40:00,
2013-04-26 13:45:00,70.3,58.4,30.40,West,270,0.0,0.0,66,0.00,,,0.00,WeatherCatV1.15B25,2013-04-26 20:45:00,
2013-04-26 13:50:00,82.0,56.0,30.22,NNW,338,0.0,0.0,41,0.00,,,0.00,LWC V2.11 B50,2013-04-26 20:50:00,
2013-04-26 13:55:00,70.3,57.6,30.40,West,270,0.0,0.0,64,0.00,,,0.00,WeatherCatV1.15B25,2013-04-26 20:55:00,
2013-04-26 14:00:00,82.0,56.0,30.22,NNW,338,0.0,0.0,41,0.00,,,0.00,LWC V2.11 B50,2013-04-26 21:00:00,
2013-04-26 14:05:00,70.2,57.4,30.40,WNW,292,0.0,0.0,64,0.00,,,0.00,WeatherCatV1.15B25,2013-04-26 21:05:00,
2013-04-26 14:10:00,82.0,56.0,30.22,NNW,338,0.0,0.0,41,0.00,,,0.00,LWC V2.11 B50,2013-04-26 21:10:00,
2013-04-26 14:15:00,70.3,57.6,30.40,WNW,292,0.0,0.0,64,0.00,,,0.00,WeatherCatV1.15B25,2013-04-26 21:15:00,
2013-04-26 14:20:00,82.0,56.0,30.22,NNW,338,0.0,0.0,41,0.00,,,0.00,LWC V2.11 B50,2013-04-26 21:20:00,
2013-04-26 14:25:00,70.9,57.7,30.40,NW,315,0.0,0.0,63,0.00,,,0.00,WeatherCatV1.15B25,2013-04-26 21:25:00,
2013-04-26 14:30:00,82.0,56.0,30.22,NNW,338,0.0,0.0,41,0.00,,,0.00,LWC V2.11 B50,2013-04-26 21:30:00,
2013-04-26 14:35:00,71.8,58.5,30.40,NW,315,0.0,0.0,63,0.00,,,0.00,WeatherCatV1.15B25,2013-04-26 21:35:00,
2013-04-26 14:40:00,82.0,56.0,30.22,NNW,338,0.0,0.0,41,0.00,,,0.00,LWC V2.11 B50,2013-04-26 21:40:00,
2013-04-26 14:45:00,72.5,58.7,30.40,WNW,292,0.0,0.0,62,0.00,,,0.00,WeatherCatV1.15B25,2013-04-26 21:45:00,
2013-04-26 14:50:00,82.0,56.0,30.22,NNW,338,0.0,0.0,41,0.00,,,0.00,LWC V2.11 B50,2013-04-26 21:50:00,
2013-04-26 14:55:00,72.7,58.4,30.39,WNW,292,0.0,0.0,61,0.00,,,0.00,WeatherCatV1.15B25,2013-04-26 21:55:00,
2013-04-26 15:00:00,82.0,56.0,30.22,NNW,338,0.0,0.0,41,0.00,,,0.00,LWC V2.11 B50,2013-04-26 22:00:00,
2013-04-26 15:05:00,72.7,58.0,30.39,NW,315,0.0,0.0,60,0.00,,,0.00,WeatherCatV1.15B25,2013-04-26 22:05:00,
2013-04-26 15:10:00,82.0,56.0,30.22,NNW,338,0.0,0.0,41,0.00,,,0.00,LWC V2.11 B50,2013-04-26 22:10:00,
2013-04-26 15:15:00,72.5,57.3,30.39,WSW,248,0.0,0.0,59,0.00,,,0.00,WeatherCatV1.15B25,2013-04-26 22:15:00,
2013-04-26 15:20:00,82.0,56.0,30.22,NNW,338,0.0,0.0,41,0.00,,,0.00,LWC V2.11 B50,2013-04-26 22:20:00,
2013-04-26 15:25:00,71.8,56.7,30.38,WSW,248,0.0,0.0,59,0.00,,,0.00,WeatherCatV1.15B25,2013-04-26 22:25:00,
2013-04-26 15:30:00,82.0,56.0,30.22,NNW,338,0.0,0.0,41,0.00,,,0.00,LWC V2.11 B50,2013-04-26 22:30:00,
2013-04-26 15:35:00,70.5,55.5,30.37,WSW,248,0.0,0.0,59,0.00,,,0.00,WeatherCatV1.15B25,2013-04-26 22:35:00,
2013-04-26 15:40:00,82.0,56.0,30.22,NNW,338,0.0,0.0,41,0.00,,,0.00,LWC V2.11 B50,2013-04-26 22:40:00,
2013-04-26 15:45:00,69.1,54.6,30.37,SSW,202,0.0,0.0,60,0.00,,,0.00,WeatherCatV1.15B25,2013-04-26 22:45:00,
2013-04-26 15:50:00,82.0,56.0,30.22,NNW,338,0.0,0.0,41,0.00,,,0.00,LWC V2.11 B50,2013-04-26 22:50:00,
2013-04-26 15:55:00,68.7,54.3,30.36,SSW,202,0.0,0.0,60,0.00,,,0.00,WeatherCatV1.15B25,2013-04-26 22:55:00,
2013-04-26 16:00:00,82.0,56.0,30.22,NNW,338,0.0,0.0,41,0.00,,,0.00,LWC V2.11 B50,2013-04-26 23:00:00,
2013-04-26 16:05:00,67.8,54.3,30.36,SSW,202,0.0,0.0,62,0.00,,,0.00,WeatherCatV1.15B25,2013-04-26 23:05:00,
2013-04-26 16:10:00,67.8,54.3,30.36,SSW,202,0.0,0.0,62,0.00,,,0.00,WeatherCatV1.15B25,2013-04-26 23:10:00,
2013-04-26 16:15:00,67.3,53.8,30.35,WSW,248,0.0,0.0,62,0.00,,,0.00,WeatherCatV1.15B25,2013-04-26 23:15:00,
2013-04-26 16:16:00,66.9,53.5,30.36,SSW,202,0.0,0.0,62,0.00,,,0.00,LWC V2.11 B50,2013-04-26 23:16:00,
2013-04-26 16:20:00,67.3,53.8,30.35,WSW,248,0.0,0.0,62,0.00,,,0.00,WeatherCatV1.15B25,2013-04-26 23:20:00,
2013-04-26 16:21:00,66.7,53.7,30.35,WNW,292,0.0,0.0,63,0.00,,,0.00,LWC V2.11 B50,2013-04-26 23:21:00,
2013-04-26 16:25:00,66.7,53.3,30.35,SSW,202,0.0,0.0,62,0.00,,,0.00,WeatherCatV1.15B25,2013-04-26 23:25:00,
2013-04-26 16:26:00,66.9,53.9,30.35,SW,225,0.0,0.0,63,0.00,,,0.00,LWC V2.11 B50,2013-04-26 23:26:00,
2013-04-26 16:30:00,66.7,53.3,30.35,SSW,202,0.0,0.0,62,0.00,,,0.00,WeatherCatV1.15B25,2013-04-26 23:30:00,
2013-04-26 16:31:00,67.1,54.0,30.35,WSW,247,0.0,0.0,62,0.00,,,0.00,LWC V2.11 B50,2013-04-26 23:31:00,
2013-04-26 16:35:00,66.9,53.9,30.34,SW,225,0.0,0.0,63,0.00,,,0.00,WeatherCatV1.15B25,2013-04-26 23:35:00,
2013-04-26 16:40:00,66.9,53.9,30.34,SW,225,0.0,0.0,63,0.00,,,0.00,WeatherCatV1.15B25,2013-04-26 23:40:00,
2013-04-26 16:45:00,67.3,53.8,30.34,WSW,244,0.0,0.0,62,0.00,,,0.00,WeatherCatV1.15B25,2013-04-26 23:45:00,
2013-04-26 16:50:00,67.3,53.8,30.34,WSW,244,0.0,0.0,62,0.00,,,0.00,WeatherCatV1.15B25,2013-04-26 23:50:00,
2013-04-26 16:55:00,67.3,53.8,30.34,WSW,244,0.0,0.0,62,0.00,,,0.00,WeatherCatV1.15B25,2013-04-26 23:55:00,
2013-04-26 17:00:00,66.9,52.6,30.34,SW,219,0.0,0.0,60,0.00,,,0.00,WeatherCatV1.15B25,2013-04-27 00:00:00,
2013-04-26 17:05:00,66.7,52.1,30.33,WSW,250,0.0,0.0,59,0.00,,,0.00,WeatherCatV1.15B25,2013-04-27 00:05:00,
2013-04-26 17:10:00,66.7,52.5,30.33,WNW,294,0.0,0.0,60,0.00,,,0.00,WeatherCatV1.15B25,2013-04-27 00:10:00,
2013-04-26 17:15:00,67.3,53.2,30.32,NW,305,0.0,0.0,62,0.00,,,0.00,WeatherCatV1.15B25,2013-04-27 00:15:00,
2013-04-26 17:20:00,67.3,53.8,30.33,NW,306,0.0,0.0,62,0.00,,,0.00,WeatherCatV1.15B25,2013-04-27 00:20:00,
2013-04-26 17:25:00,67.8,54.7,30.32,North,352,0.0,0.0,63,0.00,,,0.00,WeatherCatV1.15B25,2013-04-27 00:25:00,
2013-04-26 17:30:00,68.2,54.6,30.32,North,351,0.0,0.0,62,0.00,,,0.00,WeatherCatV1.15B25,2013-04-27 00:30:00,
2013-04-26 17:35:00,68.2,54.6,30.32,North,0,0.0,0.0,62,0.00,,,0.00,WeatherCatV1.15B25,2013-04-27 00:35:00,
2013-04-26 17:40:00,67.8,54.3,30.32,North,10,0.0,0.0,62,0.00,,,0.00,WeatherCatV1.15B25,2013-04-27 00:40:00,
2013-04-26 17:45:00,67.6,54.3,30.32,North,3,0.0,0.0,62,0.00,,,0.00,WeatherCatV1.15B25,2013-04-27 00:45:00,
2013-04-26 17:50:00,67.3,53.8,30.32,NNE,20,0.0,0.0,62,0.00,,,0.00,WeatherCatV1.15B25,2013-04-27 00:50:00,
2013-04-26 17:55:00,66.9,53.6,30.32,NNE,22,0.0,0.0,62,0.00,,,0.00,WeatherCatV1.15B25,2013-04-27 00:55:00,
2013-04-26 18:00:00,66.9,53.5,30.32,North,4,0.0,0.0,62,0.00,,,0.00,WeatherCatV1.15B25,2013-04-27 01:00:00,
2013-04-26 18:05:00,66.7,53.3,30.32,North,350,0.0,0.0,62,0.00,,,0.00,WeatherCatV1.15B25,2013-04-27 01:05:00,
2013-04-26 18:10:00,66.7,53.7,30.32,North,359,0.0,0.0,63,0.00,,,0.00,WeatherCatV1.15B25,2013-04-27 01:10:00,
2013-04-26 18:15:00,66.9,53.9,30.32,North,355,0.0,0.0,63,0.00,,,0.00,WeatherCatV1.15B25,2013-04-27 01:15:00,
2013-04-26 18:20:00,67.1,54.0,30.32,NW,325,0.0,0.0,63,0.00,,,0.00,WeatherCatV1.15B25,2013-04-27 01:20:00,
2013-04-26 18:25:00,67.3,54.0,30.32,NNW,335,0.0,0.0,63,0.00,,,0.00,WeatherCatV1.15B25,2013-04-27 01:25:00,
2013-04-26 18:30:00,67.5,54.4,30.32,NNW,341,0.0,0.0,63,0.00,,,0.00,WeatherCatV1.15B25,2013-04-27 01:30:00,
2013-04-26 18:35:00,67.6,54.6,30.32,NNW,346,0.0,0.0,63,0.00,,,0.00,WeatherCatV1.15B25,2013-04-27 01:35:00,
2013-04-26 18:40:00,67.6,53.7,30.32,NNW,347,0.0,0.0,61,0.00,,,0.00,WeatherCatV1.15B25,2013-04-27 01:40:00,
2013-04-26 18:45:00,67.5,53.5,30.32,North,9,0.0,0.0,61,0.00,,,0.00,WeatherCatV1.15B25,2013-04-27 01:45:00,
2013-04-26 18:50:00,67.3,53.4,30.32,North,4,0.0,0.0,61,0.00,,,0.00,WeatherCatV1.15B25,2013-04-27 01:50:00,
2013-04-26 18:55:00,66.7,52.5,30.32,NNE,15,0.0,0.0,60,0.00,,,0.00,WeatherCatV1.15B25,2013-04-27 01:55:00,
2013-04-26 19:00:00,66.7,52.5,30.33,NNE,21,0.0,0.0,61,0.00,,,0.00,WeatherCatV1.15B25,2013-04-27 02:00:00,
2013-04-26 19:05:00,66.2,52.0,30.32,North,358,0.0,0.0,60,0.00,,,0.00,WeatherCatV1.15B25,2013-04-27 02:05:00,
2013-04-26 19:10:00,65.8,51.6,30.33,North,5,0.0,0.0,60,0.00,,,0.00,WeatherCatV1.15B25,2013-04-27 02:10:00,
2013-04-26 19:15:00,65.1,51.3,30.33,North,358,0.0,0.0,60,0.00,,,0.00,WeatherCatV1.15B25,2013-04-27 02:15:00,
2013-04-26 19:20:00,64.9,50.2,30.33,NNE,27,0.0,0.0,59,0.00,,,0.00,WeatherCatV1.15B25,2013-04-27 02:20:00,
2013-04-26 19:25:00,64.4,49.9,30.33,NNE,26,0.0,0.0,59,0.00,,,0.00,WeatherCatV1.15B25,2013-04-27 02:25:00,
2013-04-26 19:30:00,64.2,49.9,30.34,North,6,0.0,0.0,60,0.00,,,0.00,WeatherCatV1.15B25,2013-04-27 02:30:00,
2013-04-26 19:35:00,63.7,49.5,30.33,North,9,0.0,0.0,60,0.00,,,0.00,WeatherCatV1.15B25,2013-04-27 02:35:00,
2013-04-26 19:40:00,63.5,49.4,30.33,NNE,18,0.0,0.0,60,0.00,,,0.00,WeatherCatV1.15B25,2013-04-27 02:40:00,
2013-04-26 19:45:00,63.1,49.4,30.33,NNW,329,0.0,0.0,60,0.00,,,0.00,WeatherCatV1.15B25,2013-04-27 02:45:00,
2013-04-26 19:50:00,62.4,48.4,30.33,North,359,0.0,0.0,60,0.00,,,0.00,WeatherCatV1.15B25,2013-04-27 02:50:00,
2013-04-26 19:55:00,62.1,48.2,30.33,East,84,0.0,0.0,60,0.00,,,0.00,WeatherCatV1.15B25,2013-04-27 02:55:00,
2013-04-26 20:00:00,61.7,47.8,30.33,ESE,110,0.0,0.0,60,0.00,,,0.00,WeatherCatV1.15B25,2013-04-27 03:00:00,
2013-04-26 20:05:00,61.5,47.6,30.32,ESE,112,0.0,0.0,60,0.00,,,0.00,WeatherCatV1.15B25,2013-04-27 03:05:00,
2013-04-26 20:10:00,61.2,47.3,30.32,SE,132,0.0,0.0,60,0.00,,,0.00,WeatherCatV1.15B25,2013-04-27 03:10:00,
2013-04-26 20:15:00,61.0,47.1,30.33,NE,34,0.0,0.0,60,0.00,,,0.00,WeatherCatV1.15B25,2013-04-27 03:15:00,
2013-04-26 20:20:00,60.6,47.2,30.33,NNE,12,0.0,0.0,61,0.00,,,0.00,WeatherCatV1.15B25,2013-04-27 03:20:00,
2013-04-26 20:25:00,60.4,47.0,30.34,North,8,0.0,0.0,61,0.00,,,0.00,WeatherCatV1.15B25,2013-04-27 03:25:00,
2013-04-26 20:30:00,60.1,46.6,30.33,East,81,0.0,0.0,61,0.00,,,0.00,WeatherCatV1.15B25,2013-04-27 03:30:00,
2013-04-26 20:35:00,59.5,46.3,30.33,East,88,0.0,0.0,61,0.00,,,0.00,WeatherCatV1.15B25,2013-04-27 03:35:00,
2013-04-26 20:40:00,59.4,46.1,30.34,ENE,71,0.0,0.0,61,0.00,,,0.00,WeatherCatV1.15B25,2013-04-27 03:40:00,
2013-04-26 20:45:00,59.2,46.3,30.34,ENE,69,0.0,0.0,62,0.00,,,0.00,WeatherCatV1.15B25,2013-04-27 03:45:00,
2013-04-26 20:50:00,58.8,46.0,30.34,East,79,0.0,0.0,62,0.00,,,0.00,WeatherCatV1.15B25,2013-04-27 03:50:00,
2013-04-26 20:55:00,58.6,45.8,30.34,ENE,68,0.0,0.0,62,0.00,,,0.00,WeatherCatV1.15B25,2013-04-27 03:55:00,
2013-04-26 21:00:00,58.3,45.5,30.34,NE,47,0.0,0.0,62,0.00,,,0.00,WeatherCatV1.15B25,2013-04-27 04:00:00,
2013-04-26 21:05:00,58.1,45.7,30.34,NE,46,0.0,0.0,63,0.00,,,0.00,WeatherCatV1.15B25,2013-04-27 04:05:00,
2013-04-26 21:10:00,57.9,45.4,30.35,ENE,63,0.0,0.0,63,0.00,,,0.00,WeatherCatV1.15B25,2013-04-27 04:10:00,
2013-04-26 21:15:00,57.7,45.4,30.35,NE,52,0.0,0.0,63,0.00,,,0.00,WeatherCatV1.15B25,2013-04-27 04:15:00,
2013-04-26 21:20:00,57.4,45.0,30.34,ENE,61,0.0,0.0,63,0.00,,,0.00,WeatherCatV1.15B25,2013-04-27 04:20:00,
2013-04-26 21:25:00,57.4,45.3,30.34,ENE,65,0.0,0.0,63,0.00,,,0.00,WeatherCatV1.15B25,2013-04-27 04:25:00,
2013-04-26 21:30:00,57.0,44.9,30.36,ENE,67,0.0,0.0,64,0.00,,,0.00,WeatherCatV1.15B25,2013-04-27 04:30:00,
2013-04-26 21:35:00,56.8,44.9,30.36,ENE,62,0.0,0.0,64,0.00,,,0.00,WeatherCatV1.15B25,2013-04-27 04:35:00,
2013-04-26 21:40:00,56.7,45.2,30.36,NE,52,0.0,0.0,65,0.00,,,0.00,WeatherCatV1.15B25,2013-04-27 04:40:00,
2013-04-26 21:45:00,56.5,45.0,30.36,NE,45,0.0,0.0,65,0.00,,,0.00,WeatherCatV1.15B25,2013-04-27 04:45:00,
2013-04-26 21:50:00,56.5,45.0,30.36,NE,45,0.0,0.0,65,0.00,,,0.00,WeatherCatV1.15B25,2013-04-27 04:50:00,
2013-04-26 21:55:00,56.1,45.0,30.35,NE,46,0.0,0.0,66,0.00,,,0.00,WeatherCatV1.15B25,2013-04-27 04:55:00,
2013-04-26 22:00:00,55.9,44.7,30.35,North,7,0.0,0.0,66,0.00,,,0.00,WeatherCatV1.15B25,2013-04-27 05:00:00,
2013-04-26 22:05:00,55.9,44.7,30.36,North,350,0.0,0.0,66,0.00,,,0.00,WeatherCatV1.15B25,2013-04-27 05:05:00,
2013-04-26 22:10:00,55.8,45.1,30.36,NNW,341,0.0,0.0,67,0.00,,,0.00,WeatherCatV1.15B25,2013-04-27 05:10:00,
2013-04-26 22:15:00,55.8,44.9,30.36,NNE,26,0.0,0.0,67,0.00,,,0.00,WeatherCatV1.15B25,2013-04-27 05:15:00,
2013-04-26 22:20:00,55.6,44.9,30.36,NE,44,0.0,0.0,67,0.00,,,0.00,WeatherCatV1.15B25,2013-04-27 05:20:00,
2013-04-26 22:25:00,67.3,53.8,30.34,WSW,248,0.0,0.0,62,0.00,,,0.00,WeatherCatV1.15B25,2013-04-27 05:25:00,
2013-04-26 22:30:00,67.3,53.8,30.34,WSW,248,0.0,0.0,62,0.00,,,0.00,WeatherCatV1.15B25,2013-04-27 05:30:00,
2013-04-26 22:35:00,67.3,53.8,30.34,WSW,248,0.0,0.0,62,0.00,,,0.00,WeatherCatV1.15B25,2013-04-27 05:35:00,
2013-04-26 22:40:00,67.3,53.8,30.34,WSW,248,0.0,0.0,62,0.00,,,0.00,WeatherCatV1.15B25,2013-04-27 05:40:00,
2013-04-26 22:45:00,67.3,53.8,30.34,WSW,248,0.0,0.0,62,0.00,,,0.00,WeatherCatV1.15B25,2013-04-27 05:45:00,
2013-04-26 22:50:00,67.3,53.8,30.34,WSW,248,0.0,0.0,62,0.00,,,0.00,WeatherCatV1.15B25,2013-04-27 05:50:00,
2013-04-26 22:55:00,67.3,53.8,30.34,WSW,248,0.0,0.0,62,0.00,,,0.00,WeatherCatV1.15B25,2013-04-27 05:55:00,
2013-04-26 23:00:00,67.3,53.8,30.34,WSW,248,0.0,0.0,62,0.00,,,0.00,WeatherCatV1.15B25,2013-04-27 06:00:00,
2013-04-26 23:05:00,67.3,53.8,30.34,WSW,248,0.0,0.0,62,0.00,,,0.00,WeatherCatV1.15B25,2013-04-27 06:05:00,
2013-04-26 23:10:00,67.3,53.8,30.34,WSW,248,0.0,0.0,62,0.00,,,0.00,WeatherCatV1.15B25,2013-04-27 06:10:00,
2013-04-26 23:15:00,67.3,53.8,30.34,WSW,248,0.0,0.0,62,0.00,,,0.00,WeatherCatV1.15B25,2013-04-27 06:15:00,
2013-04-26 23:20:00,67.3,53.8,30.34,WSW,248,0.0,0.0,62,0.00,,,0.00,WeatherCatV1.15B25,2013-04-27 06:20:00,
2013-04-26 23:25:00,67.3,53.8,30.34,WSW,248,0.0,0.0,62,0.00,,,0.00,WeatherCatV1.15B25,2013-04-27 06:25:00,
2013-04-26 23:30:00,67.3,53.8,30.34,WSW,248,0.0,0.0,62,0.00,,,0.00,WeatherCatV1.15B25,2013-04-27 06:30:00,
2013-04-26 23:35:00,67.3,53.8,30.34,WSW,248,0.0,0.0,62,0.00,,,0.00,WeatherCatV1.15B25,2013-04-27 06:35:00,
2013-04-26 23:40:00,67.3,53.8,30.34,WSW,248,0.0,0.0,62,0.00,,,0.00,WeatherCatV1.15B25,2013-04-27 06:40:00,
2013-04-26 23:45:00,67.3,53.8,30.34,WSW,248,0.0,0.0,62,0.00,,,0.00,WeatherCatV1.15B25,2013-04-27 06:45:00,
2013-04-26 23:50:00,67.3,53.8,30.34,WSW,248,0.0,0.0,62,0.00,,,0.00,WeatherCatV1.15B25,2013-04-27 06:50:00,
2013-04-26 23:55:00,67.3,53.8,30.34,WSW,248,0.0,0.0,62,0.00,,,0.00,WeatherCatV1.15B25,2013-04-27 06:55:00,